首页
METAR-TAF:

METAR-TAF

机场 :

雅典埃莱夫塞里奥斯·韦尼泽洛斯国际机场

雅典, 希腊

纬度: 37-56N, 经度: 023-56E, 海拔: 94米

当前天气观测

该预报发布于30分钟前的12:20 UTC
风速1节,风向多变
温度 14°C
湿度 77%
气压 1012 hPa
能见度10公里或以上
散云层高于2500英尺
多云层高于7000英尺

METAR: LGAV 181220Z VRB01KT 9999 SCT025 BKN070 14/10 Q1012 NOSIG

时间: 14:50 (12:50 UTC)

预报

该预报发布于1小时和50分钟前的11:00 UTC
预报有效从18日的 12点(UTC)到 19日的 12点(UTC)
风速13节,风向东北
能見度: 7000
少量云层高于1000英尺
散云层高于2500英尺
多云层高于7000英尺
几率 40% :
短暂存在
从 18日的 12点(UTC)到 19日的 03点(UTC)
能見度: 4000
散云层高于800英尺
多云层高于2000英尺
阴天层高于6000英尺
几率 40% :
短暂存在
从 18日的 12点(UTC)到 18日的 18点(UTC)
能見度: 3000
散云层高于500英尺
散云层高于1500英尺, 积雨云.
多云层高于2000英尺
阴天层高于6000英尺
雷暴, 雨
成为
从 18日的 12点(UTC)到 18日的 14点(UTC)
风速15节,风向
短暂存在
从 18日的 20点(UTC)到 19日的 03点(UTC)
风速20节,风向,有时为30节阵风
成为
从 19日的 10点(UTC)到 19日的 12点(UTC)
风速10节,风向西

TAF: LGAV 181100Z 1812/1912 05013KT 7000 FEW010 SCT025 BKN070 PROB40 TEMPO 1812/1903 4000 RA SCT008 BKN020 OVC060 PROB40 TEMPO 1812/1818 3000 TSRA SCT005 SCT015CB BKN020 OVC060 BECMG 1812/1814 19015KT TEMPO 1820/1903 19020G30KT BECMG 1910/1912 28010KT

超过4000个机场的气象观测和天气预报(METAR&TAF报告)。

可查询的气象台以黄色和红色小点在地图上表示。

将鼠标移到小点上方,可查看气象台名称。

然后点击查看天气观测和预报。

如需切换地图:点击带黑十字的绿色按钮放大地图;点击带横线的绿色按钮缩小地图;或者点击绿色箭头查看邻近地区的地图。


METAR-TAF: